createdAt,value
2023-05-22T00:02:17.468Z,96219.00
2023-05-22T00:04:47.550Z,96215.00
2023-05-22T00:07:15.711Z,96204.34
2023-05-22T00:09:44.212Z,96211.81
2023-05-22T00:12:12.356Z,96206.75
2023-05-22T00:14:40.445Z,96206.75
2023-05-22T00:17:10.278Z,96202.47
2023-05-22T00:19:38.458Z,96209.94
2023-05-22T00:22:08.281Z,96206.75
2023-05-22T00:27:56.206Z,96205.56
2023-05-22T00:30:24.235Z,96204.22
2023-05-22T00:32:52.573Z,96197.84
2023-05-22T00:35:21.902Z,96208.22
2023-05-22T00:37:51.301Z,96204.50
2023-05-22T00:40:19.671Z,96209.56
2023-05-22T00:42:48.011Z,96201.84
2023-05-22T00:45:16.592Z,96199.41
2023-05-22T00:47:44.707Z,96203.91
2023-05-22T00:50:13.543Z,96194.06
2023-05-22T00:52:44.112Z,96194.56
2023-05-22T00:55:15.038Z,96201.72
2023-05-22T00:57:43.758Z,96201.69
2023-05-22T01:00:14.085Z,96201.16
2023-05-22T01:02:43.116Z,96194.22
2023-05-22T01:05:13.304Z,96201.94
2023-05-22T01:07:41.793Z,96206.47
2023-05-22T01:10:10.988Z,96210.97
2023-05-22T01:12:54.093Z,96197.94
2023-05-22T01:15:30.534Z,96203.25
2023-05-22T01:18:11.255Z,96201.16
2023-05-22T01:20:48.788Z,96197.44
2023-05-22T01:24:06.541Z,96195.84
2023-05-22T01:27:35.101Z,96201.31
2023-05-22T01:30:29.934Z,96212.75
2023-05-22T01:33:00.247Z,96204.78
2023-05-22T01:35:29.650Z,96208.75
2023-05-22T01:37:59.341Z,96211.41
2023-05-22T01:40:28.187Z,96210.59
2023-05-22T01:42:56.378Z,96215.88
2023-05-22T01:45:25.432Z,96214.78
2023-05-22T01:47:53.763Z,96216.06
2023-05-22T01:50:23.413Z,96215.25
2023-05-22T01:53:01.334Z,96211.47
2023-05-22T01:55:42.929Z,96214.09
2023-05-22T01:58:34.490Z,96214.28
2023-05-22T02:04:00.618Z,96224.91
2023-05-22T02:06:36.960Z,96221.97
2023-05-22T02:09:06.377Z,96219.25
2023-05-22T02:11:37.032Z,96219.25
2023-05-22T02:14:06.002Z,96219.00
2023-05-22T02:16:35.069Z,96219.31
2023-05-22T02:19:06.468Z,96224.06
2023-05-22T02:21:37.388Z,96219.00
2023-05-22T02:24:06.315Z,96215.53
2023-05-22T02:26:34.511Z,96215.78
2023-05-22T02:29:03.685Z,96209.94
2023-05-22T02:31:31.928Z,96213.47
2023-05-22T02:34:00.063Z,96208.94
2023-05-22T02:36:30.921Z,96215.06
2023-05-22T02:39:01.161Z,96214.81
2023-05-22T02:41:29.483Z,96213.97
2023-05-22T02:43:58.012Z,96220.91
2023-05-22T02:46:26.404Z,96220.91
2023-05-22T02:48:54.596Z,96219.78
2023-05-22T02:51:22.733Z,96220.63
2023-05-22T02:53:51.054Z,96224.56
2023-05-22T02:56:21.203Z,96220.63
2023-05-22T02:58:49.362Z,96221.59
2023-05-22T03:01:17.479Z,96217.66
2023-05-22T03:03:45.827Z,96218.41
2023-05-22T03:06:13.951Z,96221.91
2023-05-22T03:08:44.308Z,96217.09
2023-05-22T03:11:12.511Z,96217.84
2023-05-22T03:13:41.946Z,96220.25
2023-05-22T03:16:10.145Z,96212.81
2023-05-22T03:18:42.737Z,96212.19
2023-05-22T03:21:11.119Z,96212.50
2023-05-22T03:23:40.359Z,96213.31
2023-05-22T03:26:08.816Z,96213.31
2023-05-22T03:28:39.168Z,96225.56
2023-05-22T03:31:09.470Z,96222.13
2023-05-22T03:33:57.811Z,96229.47
2023-05-22T03:36:26.197Z,96224.16
2023-05-22T03:38:54.876Z,96225.50
2023-05-22T03:41:23.178Z,96221.31
2023-05-22T03:43:51.323Z,96221.81
2023-05-22T03:46:21.584Z,96222.13
2023-05-22T03:48:49.900Z,96221.03
2023-05-22T03:51:20.099Z,96215.97
2023-05-22T03:53:48.754Z,96234.28
2023-05-22T03:56:17.521Z,96223.44
2023-05-22T03:58:45.681Z,96227.69
2023-05-22T04:01:13.850Z,96228.66
2023-05-22T04:03:43.554Z,96227.91
2023-05-22T04:06:13.725Z,96227.69
2023-05-22T04:08:42.102Z,96240.34
2023-05-22T04:11:10.220Z,96243.22
2023-05-22T04:13:38.772Z,96247.47
2023-05-22T04:16:08.618Z,96250.91
2023-05-22T04:18:36.892Z,96258.78
2023-05-22T04:21:09.698Z,96264.59
2023-05-22T04:23:38.685Z,96257.94
2023-05-22T04:26:08.729Z,96256.13
2023-05-22T04:28:36.998Z,96264.66
2023-05-22T04:31:07.414Z,96259.41
2023-05-22T04:33:36.542Z,96263.59
2023-05-22T04:36:12.329Z,96258.28
2023-05-22T04:38:41.420Z,96252.78
2023-05-22T04:41:13.543Z,96248.28
2023-05-22T04:43:41.804Z,96251.56
2023-05-22T04:46:10.098Z,96248.91
2023-05-22T04:48:40.225Z,96247.03
2023-05-22T04:51:10.424Z,96254.25
2023-05-22T04:53:38.621Z,96258.25
2023-05-22T04:56:08.055Z,96261.53
2023-05-22T04:58:37.894Z,96256.22
2023-05-22T05:01:07.309Z,96254.66
2023-05-22T05:03:36.059Z,96257.59
2023-05-22T05:06:04.427Z,96256.56
2023-05-22T05:08:33.934Z,96258.47
2023-05-22T05:11:02.263Z,96262.47
2023-05-22T05:13:30.762Z,96256.19
2023-05-22T05:16:00.648Z,96250.91
2023-05-22T05:18:29.192Z,96251.78
2023-05-22T05:20:57.636Z,96252.88
2023-05-22T05:23:26.102Z,96253.44
2023-05-22T05:25:57.203Z,96261.13
2023-05-22T05:28:26.257Z,96261.44
2023-05-22T05:30:55.182Z,96263.03
2023-05-22T05:33:31.232Z,96256.66
2023-05-22T05:36:16.279Z,96263.03
2023-05-22T05:38:46.855Z,96256.72
2023-05-22T05:41:19.123Z,96269.28
2023-05-22T05:43:52.824Z,96266.63
2023-05-22T05:46:21.388Z,96267.19
2023-05-22T05:48:49.499Z,96272.56
2023-05-22T05:51:17.702Z,96273.09
2023-05-22T05:53:45.968Z,96265.69
2023-05-22T05:56:14.977Z,96270.22
2023-05-22T05:58:44.797Z,96270.47
2023-05-22T06:01:50.655Z,96271.28
2023-05-22T06:04:24.277Z,96277.44
2023-05-22T06:06:53.808Z,96273.22
2023-05-22T06:09:37.289Z,96273.50
2023-05-22T06:12:15.237Z,96276.22
2023-05-22T06:14:47.433Z,96279.16
2023-05-22T06:17:16.853Z,96286.91
2023-05-22T06:19:46.320Z,96287.00
2023-05-22T06:22:15.433Z,96282.22
2023-05-22T06:24:45.828Z,96287.34
2023-05-22T06:27:18.385Z,96285.78
2023-05-22T06:29:47.923Z,96283.66
2023-05-22T06:32:16.426Z,96286.38
2023-05-22T06:34:48.537Z,96286.41
2023-05-22T06:37:18.756Z,96289.38
2023-05-22T06:39:48.507Z,96287.81
2023-05-22T06:42:34.739Z,96283.31
2023-05-22T06:45:31.171Z,96279.09
2023-05-22T06:48:28.929Z,96282.28
2023-05-22T06:51:15.060Z,96286.63
2023-05-22T06:53:44.155Z,96290.66
2023-05-22T06:56:19.607Z,96279.75
2023-05-22T06:58:54.187Z,96283.50
2023-05-22T07:01:30.128Z,96283.25
2023-05-22T07:04:09.161Z,96291.50
2023-05-22T07:06:41.890Z,96285.91
2023-05-22T07:09:11.637Z,96288.88
2023-05-22T07:11:39.918Z,96291.81
2023-05-22T07:14:08.766Z,96294.97
2023-05-22T07:16:38.333Z,96291.00
2023-05-22T07:19:08.617Z,96292.56
2023-05-22T07:21:37.138Z,96296.28
2023-05-22T07:24:09.163Z,96299.50
2023-05-22T07:26:46.509Z,96300.00
2023-05-22T07:29:15.532Z,96299.22
2023-05-22T07:31:46.548Z,96292.50
2023-05-22T07:34:14.940Z,96305.84
2023-05-22T07:36:43.413Z,96306.91
2023-05-22T07:39:11.549Z,96305.25
2023-05-22T07:41:51.078Z,96307.13
2023-05-22T07:44:21.036Z,96301.50
2023-05-22T07:46:52.049Z,96305.97
2023-05-22T07:49:23.563Z,96302.69
2023-05-22T07:51:52.633Z,96302.16
2023-05-22T07:54:22.667Z,96299.72
2023-05-22T07:56:53.555Z,96305.81
2023-05-22T07:59:25.522Z,96299.59
2023-05-22T08:01:58.592Z,96309.50
2023-05-22T08:04:27.553Z,96303.63
2023-05-22T08:06:55.776Z,96312.97
2023-05-22T08:09:24.089Z,96316.94
2023-05-22T08:11:52.250Z,96306.78
2023-05-22T08:14:22.022Z,96311.09
2023-05-22T08:16:50.312Z,96313.50
2023-05-22T08:19:20.170Z,96306.25
2023-05-22T08:21:48.331Z,96313.50
2023-05-22T08:24:16.636Z,96313.44
2023-05-22T08:26:44.828Z,96308.41
2023-05-22T08:29:13.202Z,96306.25
2023-05-22T08:31:41.672Z,96308.09
2023-05-22T08:34:10.603Z,96307.84
2023-05-22T08:36:40.150Z,96303.81
2023-05-22T08:39:12.028Z,96305.41
2023-05-22T08:41:40.261Z,96305.06
2023-05-22T08:44:08.509Z,96300.63
2023-05-22T08:46:38.142Z,96293.84
2023-05-22T08:49:06.682Z,96293.25
2023-05-22T08:51:38.759Z,96295.31
2023-05-22T08:54:08.524Z,96291.00
2023-05-22T08:56:45.415Z,96289.13
2023-05-22T08:59:22.978Z,96294.72
2023-05-22T09:01:52.404Z,96291.25
2023-05-22T09:04:23.926Z,96290.41
2023-05-22T09:06:52.661Z,96294.66
2023-05-22T09:09:22.454Z,96291.94
2023-05-22T09:11:50.808Z,96291.72
2023-05-22T09:14:20.226Z,96294.59
2023-05-22T09:16:50.750Z,96295.34
2023-05-22T09:19:19.225Z,96302.03
2023-05-22T09:21:47.615Z,96297.75
2023-05-22T09:24:15.953Z,96297.13
2023-05-22T09:26:46.247Z,96296.84
2023-05-22T09:29:14.452Z,96293.56
2023-05-22T09:31:44.656Z,96290.59
2023-05-22T09:34:15.644Z,96292.41
2023-05-22T09:36:44.432Z,96294.44
2023-05-22T09:39:12.665Z,96284.75
2023-05-22T09:41:41.744Z,96283.09
2023-05-22T09:44:17.598Z,96284.22
2023-05-22T09:46:48.040Z,96278.69
2023-05-22T09:49:17.681Z,96284.16
2023-05-22T09:51:48.820Z,96287.47
2023-05-22T09:54:19.813Z,96276.91
2023-05-22T09:56:51.356Z,96286.47
2023-05-22T09:59:30.285Z,96283.78
2023-05-22T10:02:01.843Z,96275.88
2023-05-22T10:04:34.043Z,96279.19
2023-05-22T10:07:04.331Z,96280.56
2023-05-22T10:09:36.791Z,96281.28
2023-05-22T10:12:09.157Z,96277.34
2023-05-22T10:14:38.979Z,96282.63
2023-05-22T10:17:08.051Z,96280.94
2023-05-22T10:19:39.456Z,96276.63
2023-05-22T10:22:10.236Z,96281.31
2023-05-22T10:24:38.987Z,96282.22
2023-05-22T10:27:07.491Z,96278.25
2023-05-22T10:29:44.243Z,96278.03
2023-05-22T10:32:21.980Z,96282.31
2023-05-22T10:35:07.228Z,96281.59
2023-05-22T10:37:50.050Z,96281.28
2023-05-22T10:40:28.966Z,96279.91
2023-05-22T10:43:01.562Z,96271.25
2023-05-22T10:45:31.876Z,96267.50
2023-05-22T10:48:08.644Z,96264.00
2023-05-22T10:50:37.493Z,96262.88
2023-05-22T10:53:25.273Z,96259.22
2023-05-22T10:55:54.824Z,96265.91
2023-05-22T10:58:28.604Z,96253.28
2023-05-22T11:01:13.979Z,96245.25
2023-05-22T11:03:56.928Z,96251.69
2023-05-22T11:06:36.295Z,96252.38
2023-05-22T11:09:21.755Z,96247.22
2023-05-22T11:12:11.606Z,96251.91
2023-05-22T11:14:39.817Z,96246.00
2023-05-22T11:17:09.534Z,96254.28
2023-05-22T11:19:37.805Z,96238.25
2023-05-22T11:22:06.815Z,96245.28
2023-05-22T11:24:35.814Z,96246.78
2023-05-22T11:27:07.494Z,96243.16
2023-05-22T11:29:37.393Z,96243.59
2023-05-22T11:32:06.400Z,96251.25
2023-05-22T11:34:37.007Z,96238.69
2023-05-22T11:37:05.570Z,96232.66
2023-05-22T11:39:34.411Z,96226.97
2023-05-22T11:42:04.562Z,96228.78
2023-05-22T11:44:32.940Z,96227.97
2023-05-22T11:47:02.005Z,96222.97
2023-05-22T11:49:30.250Z,96223.56
2023-05-22T11:51:59.931Z,96214.41
2023-05-22T11:54:32.693Z,96216.97
2023-05-22T11:57:00.799Z,96221.06
2023-05-22T11:59:28.988Z,96221.03
2023-05-22T12:01:57.259Z,96221.31
2023-05-22T12:04:25.623Z,96209.56
2023-05-22T12:06:54.692Z,96216.72
2023-05-22T12:09:24.823Z,96218.09
2023-05-22T12:11:55.812Z,96218.97
2023-05-22T12:14:27.970Z,96220.88
2023-05-22T12:16:56.873Z,96218.69
2023-05-22T12:19:27.868Z,96219.50
2023-05-22T12:21:56.882Z,96214.50
2023-05-22T12:24:26.643Z,96213.69
2023-05-22T12:26:55.411Z,96208.91
2023-05-22T12:29:24.465Z,96220.84
2023-05-22T12:31:53.112Z,96218.47
2023-05-22T12:34:21.379Z,96218.28
2023-05-22T12:36:49.688Z,96213.50
2023-05-22T12:39:20.033Z,96215.09
2023-05-22T12:41:49.534Z,96214.97
2023-05-22T12:44:17.742Z,96220.66
2023-05-22T12:46:46.054Z,96219.06
2023-05-22T12:49:14.281Z,96223.84
2023-05-22T12:51:42.512Z,96217.66
2023-05-22T12:54:10.721Z,96215.19
2023-05-22T12:56:38.919Z,96212.72
2023-05-22T12:59:08.658Z,96216.38
2023-05-22T13:01:36.820Z,96209.72
2023-05-22T13:04:05.009Z,96204.38
2023-05-22T13:06:33.081Z,96209.94
2023-05-22T13:09:01.313Z,96198.25
2023-05-22T13:11:29.640Z,96196.31
2023-05-22T13:13:57.736Z,96199.69
2023-05-22T13:16:27.527Z,96197.28
2023-05-22T13:18:55.862Z,96195.88
2023-05-22T13:21:26.363Z,96179.50
2023-05-22T13:23:54.747Z,96194.28
2023-05-22T13:26:22.915Z,96192.75
2023-05-22T13:28:51.737Z,96197.72
2023-05-22T13:31:19.864Z,96182.34
2023-05-22T13:33:49.423Z,96178.28
2023-05-22T13:36:18.788Z,96176.06
2023-05-22T13:38:46.966Z,96189.44
2023-05-22T13:41:17.630Z,96191.47
2023-05-22T13:43:45.822Z,96204.63
2023-05-22T13:46:13.918Z,96205.50
2023-05-22T13:48:42.227Z,96200.81
2023-05-22T13:51:11.861Z,96196.09
2023-05-22T13:53:39.958Z,96197.97
2023-05-22T13:56:08.138Z,96206.84
2023-05-22T13:58:36.208Z,96200.66
2023-05-22T14:01:04.494Z,96194.66
2023-05-22T14:03:32.840Z,96198.94
2023-05-22T14:06:01.338Z,96204.03
2023-05-22T14:08:30.996Z,96204.50
2023-05-22T14:10:59.180Z,96210.53
2023-05-22T14:13:27.385Z,96201.22
2023-05-22T14:15:55.682Z,96203.75
2023-05-22T14:18:23.869Z,96202.47
2023-05-22T14:20:52.020Z,96199.59
2023-05-22T14:23:20.444Z,96206.88
2023-05-22T14:25:49.985Z,96197.19
2023-05-22T14:28:18.227Z,96189.03
2023-05-22T14:30:46.547Z,96187.59
2023-05-22T14:33:14.786Z,96184.63
2023-05-22T14:35:43.093Z,96189.09
2023-05-22T14:38:11.470Z,96183.97
2023-05-22T14:40:39.657Z,96180.41
2023-05-22T14:43:09.283Z,96175.44
2023-05-22T14:45:37.485Z,96190.09
2023-05-22T14:48:05.937Z,96188.81
2023-05-22T14:50:34.053Z,96195.31
2023-05-22T14:53:02.464Z,96205.94
2023-05-22T14:55:31.535Z,96205.16
2023-05-22T14:57:59.851Z,96207.88
2023-05-22T15:00:30.188Z,96210.31
2023-05-22T15:02:58.421Z,96208.19
2023-05-22T15:05:27.049Z,96221.91
2023-05-22T15:07:58.365Z,96217.22
2023-05-22T15:10:27.073Z,96214.41
2023-05-22T15:12:55.417Z,96217.22
2023-05-22T15:15:23.787Z,96215.84
2023-05-22T15:17:53.435Z,96213.66
2023-05-22T15:20:21.574Z,96205.09
2023-05-22T15:22:50.319Z,96216.13
2023-05-22T15:25:18.473Z,96216.69
2023-05-22T15:27:46.594Z,96219.91
2023-05-22T15:30:16.910Z,96219.84
2023-05-22T15:32:45.253Z,96212.94
2023-05-22T15:35:14.920Z,96204.06
2023-05-22T15:37:43.220Z,96206.06
2023-05-22T15:40:16.378Z,96186.38
2023-05-22T15:42:44.692Z,96182.28
2023-05-22T15:45:13.169Z,96180.09
2023-05-22T15:47:42.729Z,96187.19
2023-05-22T15:50:11.872Z,96184.63
2023-05-22T15:52:41.520Z,96175.97
2023-05-22T15:55:10.176Z,96172.28
2023-05-22T15:57:38.544Z,96175.38
2023-05-22T16:00:09.208Z,96183.69
2023-05-22T16:02:37.531Z,96187.69
2023-05-22T16:05:06.752Z,96193.19
2023-05-22T16:07:34.900Z,96196.75
2023-05-22T16:10:05.041Z,96201.16
2023-05-22T16:12:33.273Z,96187.91
2023-05-22T16:15:02.812Z,96189.13
2023-05-22T16:17:32.202Z,96190.00
2023-05-22T16:20:00.426Z,96188.25
2023-05-22T16:22:40.026Z,96185.88
2023-05-22T16:25:18.389Z,96183.81
2023-05-22T16:27:46.648Z,96191.97
2023-05-22T16:30:17.166Z,96188.28
2023-05-22T16:32:46.710Z,96196.16
2023-05-22T16:35:15.785Z,96200.53
2023-05-22T16:37:43.999Z,96193.88
2023-05-22T16:40:12.904Z,96207.28
2023-05-22T16:42:42.427Z,96209.97
2023-05-22T16:45:11.016Z,96207.38
2023-05-22T16:47:39.307Z,96211.16
2023-05-22T16:50:09.633Z,96214.13
2023-05-22T16:52:37.777Z,96217.13
2023-05-22T16:55:07.239Z,96223.84
2023-05-22T16:57:35.474Z,96225.25
2023-05-22T17:00:06.972Z,96239.88
2023-05-22T17:02:35.440Z,96240.16
2023-05-22T17:05:03.702Z,96243.13
2023-05-22T17:07:32.520Z,96247.22
2023-05-22T17:10:01.016Z,96245.41
2023-05-22T17:12:29.235Z,96246.78
2023-05-22T17:14:57.340Z,96246.66
2023-05-22T17:17:26.863Z,96251.25
2023-05-22T17:19:55.068Z,96260.69
2023-05-22T17:22:23.133Z,96261.81
2023-05-22T17:24:51.265Z,96255.81
2023-05-22T17:27:34.368Z,96250.16
2023-05-22T17:30:04.522Z,96242.53
2023-05-22T17:32:34.052Z,96255.59
2023-05-22T17:35:04.922Z,96266.09
2023-05-22T17:37:33.213Z,96272.03
2023-05-22T17:40:01.376Z,96270.75
2023-05-22T17:42:29.628Z,96260.00
2023-05-22T17:44:57.780Z,96264.69
2023-05-22T17:47:25.947Z,96270.81
2023-05-22T17:49:55.827Z,96269.81
2023-05-22T17:52:23.976Z,96264.59
2023-05-22T17:54:52.084Z,96261.16
2023-05-22T17:57:20.182Z,96258.28
2023-05-22T17:59:48.344Z,96252.97
2023-05-22T18:02:16.678Z,96249.25
2023-05-22T18:04:44.834Z,96246.38
2023-05-22T18:07:16.006Z,96242.38
2023-05-22T18:09:44.108Z,96242.41
2023-05-22T18:12:30.146Z,96239.53
2023-05-22T18:14:59.293Z,96238.78
2023-05-22T18:17:27.548Z,96230.53
2023-05-22T18:19:55.865Z,96231.38
2023-05-22T18:22:25.950Z,96234.94
2023-05-22T18:24:54.977Z,96235.50
2023-05-22T18:27:23.139Z,96235.53
2023-05-22T18:29:51.813Z,96245.97
2023-05-22T18:32:20.031Z,96245.22
2023-05-22T18:34:48.616Z,96247.97
2023-05-22T18:37:17.413Z,96245.06
2023-05-22T18:39:47.227Z,96242.13
2023-05-22T18:42:16.159Z,96243.22
2023-05-22T18:44:46.857Z,96244.66
2023-05-22T18:47:17.118Z,96249.25
2023-05-22T18:49:45.926Z,96254.34
2023-05-22T18:52:14.452Z,96265.59
2023-05-22T18:54:42.599Z,96264.53
2023-05-22T18:57:12.125Z,96263.44
2023-05-22T18:59:40.774Z,96262.69
2023-05-22T19:02:09.725Z,96260.06
2023-05-22T19:04:38.181Z,96261.94
2023-05-22T19:07:06.534Z,96259.53
2023-05-22T19:09:34.595Z,96271.59
2023-05-22T19:12:02.722Z,96269.53
2023-05-22T19:14:32.611Z,96275.69
2023-05-22T19:17:01.231Z,96273.59
2023-05-22T19:19:30.219Z,96282.41
2023-05-22T19:21:58.503Z,96294.75
2023-05-22T19:24:28.112Z,96293.94
2023-05-22T19:26:56.256Z,96296.38
2023-05-22T19:29:24.375Z,96307.34
2023-05-22T19:31:54.739Z,96310.56
2023-05-22T19:34:23.198Z,96311.41
2023-05-22T19:36:52.038Z,96313.03
2023-05-22T19:39:20.130Z,96320.78
2023-05-22T19:41:48.448Z,96322.13
2023-05-22T19:44:16.713Z,96324.81
2023-05-22T19:46:44.933Z,96319.47
2023-05-22T19:49:14.464Z,96323.75
2023-05-22T19:51:43.709Z,96319.78
2023-05-22T19:54:11.859Z,96317.91
2023-05-22T19:56:40.012Z,96315.78
2023-05-22T19:59:08.171Z,96313.38
2023-05-22T20:01:36.340Z,96313.94
2023-05-22T20:04:04.599Z,96315.81
2023-05-22T20:06:34.717Z,96330.22
2023-05-22T20:09:03.248Z,96324.88
2023-05-22T20:11:31.616Z,96334.50
2023-05-22T20:13:59.837Z,96332.63
2023-05-22T20:16:29.518Z,96338.25
2023-05-22T20:18:58.081Z,96338.53
2023-05-22T20:21:27.067Z,96345.19
2023-05-22T20:23:56.572Z,96349.22
2023-05-22T20:26:24.718Z,96348.16
2023-05-22T20:28:53.309Z,96347.38
2023-05-22T20:31:21.485Z,96345.28
2023-05-22T20:33:50.104Z,96354.09
2023-05-22T20:36:18.805Z,96365.84
2023-05-22T20:38:47.016Z,96371.50
2023-05-22T20:41:16.523Z,96362.94
2023-05-22T20:43:44.688Z,96367.72
2023-05-22T20:46:12.970Z,96376.31
2023-05-22T20:48:46.768Z,96377.38
2023-05-22T20:51:15.666Z,96370.69
2023-05-22T20:53:43.829Z,96383.25
2023-05-22T20:56:12.366Z,96388.03
2023-05-22T20:58:42.407Z,96391.28
2023-05-22T21:01:10.604Z,96390.75
2023-05-22T21:03:39.138Z,96392.59
2023-05-22T21:06:07.690Z,96391.28
2023-05-22T21:08:35.764Z,96395.84
2023-05-22T21:11:03.915Z,96396.34
2023-05-22T21:13:32.030Z,96400.38
2023-05-22T21:16:01.677Z,96401.69
2023-05-22T21:18:29.978Z,96397.16
2023-05-22T21:20:58.130Z,96392.88
2023-05-22T21:23:26.306Z,96396.09
2023-05-22T21:25:54.423Z,96394.22
2023-05-22T21:28:22.568Z,96395.03
2023-05-22T21:30:50.823Z,96397.69
2023-05-22T21:33:20.597Z,96399.28
2023-05-22T21:35:48.798Z,96405.94
2023-05-22T21:38:16.978Z,96401.94
2023-05-22T21:40:45.670Z,96407.53
2023-05-22T21:43:13.832Z,96413.13
2023-05-22T21:45:42.131Z,96422.47
2023-05-22T21:48:10.327Z,96425.09
2023-05-22T21:50:40.011Z,96422.69
2023-05-22T21:53:08.281Z,96421.09
2023-05-22T21:55:36.921Z,96422.16
2023-05-22T21:58:05.270Z,96417.88
2023-05-22T22:00:33.492Z,96418.69
2023-05-22T22:03:01.799Z,96418.41
2023-05-22T22:05:30.000Z,96417.34
2023-05-22T22:07:59.543Z,96414.41
2023-05-22T22:10:27.649Z,96420.81
2023-05-22T22:12:55.922Z,96421.59
2023-05-22T22:15:24.390Z,96420.25
2023-05-22T22:17:53.265Z,96425.59
2023-05-22T22:20:30.536Z,96427.94
2023-05-22T22:23:09.381Z,96435.69
2023-05-22T22:25:39.250Z,96435.69
2023-05-22T22:28:08.068Z,96438.84
2023-05-22T22:30:36.226Z,96438.84
2023-05-22T22:33:04.653Z,96437.25
2023-05-22T22:35:32.940Z,96433.78
2023-05-22T22:38:01.153Z,96429.53
2023-05-22T22:40:30.708Z,96424.47
2023-05-22T22:42:58.851Z,96433.28
2023-05-22T22:45:27.161Z,96429.53
2023-05-22T22:47:56.504Z,96438.09
2023-05-22T22:50:25.437Z,96430.06
2023-05-22T22:52:53.670Z,96431.94
2023-05-22T22:55:22.169Z,96432.19
2023-05-22T22:57:52.047Z,96432.75
2023-05-22T23:00:20.613Z,96433.50
2023-05-22T23:02:48.911Z,96433.50
2023-05-22T23:05:20.332Z,96436.19
2023-05-22T23:07:49.136Z,96435.63
2023-05-22T23:10:17.290Z,96439.63
2023-05-22T23:12:45.485Z,96435.63
2023-05-22T23:15:15.891Z,96432.69
2023-05-22T23:17:44.044Z,96431.34
2023-05-22T23:20:12.762Z,96435.59
2023-05-22T23:22:41.090Z,96431.06
2023-05-22T23:25:10.363Z,96432.44
2023-05-22T23:27:39.275Z,96432.13
2023-05-22T23:30:09.341Z,96434.53
2023-05-22T23:32:38.818Z,96436.44
2023-05-22T23:35:09.995Z,96435.94
2023-05-22T23:37:38.246Z,96435.69
2023-05-22T23:40:09.658Z,96437.00
2023-05-22T23:42:37.955Z,96435.94
2023-05-22T23:45:07.438Z,96437.28
2023-05-22T23:47:35.574Z,96445.53
2023-05-22T23:50:05.987Z,96445.56
2023-05-22T23:52:34.159Z,96454.09
2023-05-22T23:55:02.260Z,96449.06
2023-05-22T23:57:30.602Z,96449.88
2023-05-22T23:59:58.734Z,96440.28
